Time;durP1;ratioP1;P1;durP2;ratioP2;P2;SDS_P1;SDS_P2;PMS_P1;PMS_P2;Temp;Humidity;BMP_temperature;BMP_pressure;BME280_temperature;BME280_humidity;BME280_pressure;Samples;Min_cycle;Max_cycle;Signal;HPM_P1;HPM_P2
2023/12/12 00:00:04;;;;;;;;;27.50;21.50;;;;;11.99;97.22;100247.63;5090058;27;45358;-84
2023/12/12 00:02:29;;;;;;;;;27.75;22.00;;;;;11.93;97.52;100242.69;5075537;28;46603;-84
2023/12/12 00:04:55;;;;;;;;;28.00;21.75;;;;;11.98;97.64;100237.03;5088896;27;45526;-85
2023/12/12 00:07:20;;;;;;;;;26.00;23.25;;;;;11.93;98.48;100233.84;5091137;27;45406;-84
2023/12/12 00:09:45;;;;;;;;;34.50;29.50;;;;;11.93;98.37;100236.50;5074499;27;45304;-84
2023/12/12 00:12:11;;;;;;;;;28.75;27.75;;;;;11.91;98.55;100241.09;5070113;28;61387;-83
2023/12/12 00:14:36;;;;;;;;;26.33;22.00;;;;;11.86;99.12;100232.56;5076085;27;61321;-83
2023/12/12 00:17:02;;;;;;;;;29.50;26.75;;;;;11.93;99.05;100244.50;5080512;27;66303;-83
2023/12/12 00:19:27;;;;;;;;;26.00;20.75;;;;;11.93;98.99;100244.50;5092515;27;45458;-84
2023/12/12 00:21:52;;;;;;;;;27.00;26.00;;;;;12.02;99.11;100249.22;5052551;28;70006;-84
2023/12/12 00:24:18;;;;;;;;;37.50;27.50;;;;;12.03;98.96;100235.78;5077014;27;61737;-84
2023/12/12 00:26:43;;;;;;;;;22.67;19.00;;;;;12.05;98.83;100227.69;5086804;27;55561;-85
2023/12/12 00:29:08;;;;;;;;;27.50;22.75;;;;;12.00;99.42;100221.81;5076703;27;45595;-86
2023/12/12 00:31:33;;;;;;;;;23.50;23.50;;;;;11.92;99.64;100210.81;5089906;27;52585;-85
2023/12/12 00:33:59;;;;;;;;;30.33;24.67;;;;;11.99;100.00;100233.44;5071592;27;49678;-86
2023/12/12 00:36:24;;;;;;;;;24.25;24.25;;;;;11.96;100.00;100215.81;5087168;27;45719;-85
2023/12/12 00:38:49;;;;;;;;;27.25;24.25;;;;;11.98;100.00;100221.03;5066924;27;58759;-86
2023/12/12 00:41:15;;;;;;;;;27.00;22.33;;;;;12.01;100.00;100220.84;5063947;27;46546;-85
2023/12/12 00:43:41;;;;;;;;;21.67;17.67;;;;;12.05;100.00;100215.19;5091627;27;55267;-86
2023/12/12 00:46:06;;;;;;;;;21.67;20.33;;;;;12.02;100.00;100207.41;5071270;27;45408;-86
2023/12/12 00:48:31;;;;;;;;;21.75;21.00;;;;;12.05;100.00;100212.53;5074438;27;45460;-86
2023/12/12 00:50:57;;;;;;;;;20.50;15.25;;;;;12.07;100.00;100207.09;5079087;27;45366;-85
2023/12/12 00:53:22;;;;;;;;;25.50;22.50;;;;;12.01;100.00;100194.22;5085870;27;45370;-85
2023/12/12 00:55:47;;;;;;;;;22.75;21.00;;;;;11.96;100.00;100178.50;5060831;27;45446;-84
2023/12/12 00:58:13;;;;;;;;;32.00;21.00;;;;;12.06;100.00;100194.72;5054806;28;54994;-84
2023/12/12 01:00:38;;;;;;;;;20.00;17.33;;;;;12.01;100.00;100188.88;5055067;28;46272;-84
2023/12/12 01:03:03;;;;;;;;;32.75;22.25;;;;;12.06;100.00;100187.59;5055207;28;45165;-84
2023/12/12 01:05:28;;;;;;;;;20.00;18.25;;;;;12.04;100.00;100188.66;5058782;28;45271;-84
2023/12/12 01:07:54;;;;;;;;;22.50;21.00;;;;;12.07;100.00;100188.44;5058498;28;51584;-84
2023/12/12 01:10:20;;;;;;;;;19.75;17.00;;;;;11.96;100.00;100167.00;5059322;27;46114;-83
2023/12/12 01:12:45;;;;;;;;;28.50;20.50;;;;;12.02;100.00;100174.59;5079111;27;45283;-84
2023/12/12 01:15:10;;;;;;;;;24.25;18.75;;;;;12.04;100.00;100165.53;5078637;28;45397;-84
2023/12/12 01:17:35;;;;;;;;;22.67;20.33;;;;;12.03;100.00;100171.81;5078903;28;45525;-84
2023/12/12 01:20:01;;;;;;;;;18.33;16.33;;;;;11.89;100.00;100150.59;5078064;27;60664;-84
2023/12/12 01:22:26;;;;;;;;;22.00;20.67;;;;;11.97;100.00;100160.72;5078167;27;45170;-84
2023/12/12 01:24:52;;;;;;;;;25.67;22.33;;;;;11.89;100.00;100139.06;5059000;27;46573;-84
2023/12/12 01:27:17;;;;;;;;;23.50;20.25;;;;;11.95;100.00;100154.63;5059362;27;45504;-84
2023/12/12 01:29:43;;;;;;;;;21.00;19.00;;;;;12.01;100.00;100156.91;5057627;28;59066;-84
2023/12/12 01:32:09;;;;;;;;;21.50;19.00;;;;;12.04;100.00;100162.00;5058247;28;45353;-84
2023/12/12 01:34:34;;;;;;;;;24.67;21.67;;;;;12.05;100.00;100150.38;5058129;28;45393;-85
2023/12/12 01:37:00;;;;;;;;;21.00;19.25;;;;;12.09;100.00;100155.38;5059158;28;45570;-85
2023/12/12 01:39:25;;;;;;;;;24.00;22.50;;;;;12.02;100.00;100142.59;5057990;28;46434;-84
2023/12/12 01:41:51;;;;;;;;;20.67;19.33;;;;;12.03;100.00;100150.50;5057364;27;58523;-84
2023/12/12 01:44:16;;;;;;;;;20.75;19.25;;;;;12.00;100.00;100156.03;5078225;27;45915;-86
2023/12/12 01:46:47;;;;;;;;;27.67;20.00;;;;;11.98;100.00;100154.41;5074377;27;45683;-86
2023/12/12 01:49:13;;;;;;;;;20.00;20.00;;;;;11.97;100.00;100142.06;5078301;28;45296;-86
2023/12/12 01:51:39;;;;;;;;;21.50;17.75;;;;;12.02;100.00;100147.94;5078218;28;45343;-86
2023/12/12 01:54:06;;;;;;;;;17.00;15.33;;;;;11.97;100.00;100142.91;5078181;27;45476;-84
2023/12/12 01:56:33;;;;;;;;;17.67;17.67;;;;;11.92;100.00;100147.72;5078263;28;45843;-85
2023/12/12 01:58:59;;;;;;;;;20.67;20.00;;;;;11.95;100.00;100152.81;5072352;27;46237;-83
2023/12/12 02:01:26;;;;;;;;;18.33;17.00;;;;;11.89;100.00;100139.94;5058352;28;45341;-86
2023/12/12 02:03:52;;;;;;;;;15.67;15.67;;;;;11.98;100.00;100155.31;5058345;28;45437;-85
2023/12/12 02:06:22;;;;;;;;;21.67;19.00;;;;;11.99;100.00;100150.81;5040240;28;45402;-85
2023/12/12 02:08:51;;;;;;;;;16.00;12.33;;;;;12.05;100.00;100137.06;5058182;28;45415;-86
2023/12/12 02:11:17;;;;;;;;;26.00;23.00;;;;;12.00;100.00;100123.22;5057486;28;45525;-85
2023/12/12 02:13:43;;;;;;;;;25.00;20.00;;;;;12.09;100.00;100138.53;5057828;28;45553;-86
2023/12/12 02:16:09;;;;;;;;;19.50;18.00;;;;;12.01;100.00;100119.59;5056055;27;45386;-86
2023/12/12 02:18:34;;;;;;;;;19.67;17.00;;;;;12.08;100.00;100132.34;5057315;28;45407;-85
2023/12/12 02:21:00;;;;;;;;;20.67;18.00;;;;;12.10;100.00;100132.25;5072763;27;45465;-86
2023/12/12 02:23:29;;;;;;;;;16.33;14.33;;;;;12.01;100.00;100107.09;5078053;28;45467;-85
2023/12/12 02:25:55;;;;;;;;;17.00;14.67;;;;;12.15;100.00;100116.81;5063562;27;45498;-85
2023/12/12 02:28:21;;;;;;;;;16.00;16.00;;;;;12.19;100.00;100112.94;5061147;28;46097;-86
2023/12/12 02:30:46;;;;;;;;;15.00;13.33;;;;;12.28;100.00;100112.31;5057736;28;45475;-86
2023/12/12 02:33:12;;;;;;;;;19.33;15.00;;;;;12.30;100.00;100106.88;5058226;28;45847;-86
2023/12/12 02:35:37;;;;;;;;;15.00;13.33;;;;;12.28;100.00;100101.66;5056844;28;56378;-84
2023/12/12 02:38:02;;;;;;;;;15.67;15.33;;;;;12.28;100.00;100100.81;5057687;27;45600;-86
2023/12/12 02:40:28;;;;;;;;;17.33;15.67;;;;;12.32;100.00;100105.78;5062376;28;45330;-86
2023/12/12 02:42:53;;;;;;;;;18.67;18.33;;;;;12.36;100.00;100099.28;5062435;28;46131;-86
2023/12/12 02:45:18;;;;;;;;;21.33;14.33;;;;;12.37;100.00;100100.16;5057585;28;45457;-85
2023/12/12 02:47:44;;;;;;;;;15.67;15.67;;;;;12.36;100.00;100088.59;5056770;28;60092;-83
2023/12/12 02:50:09;;;;;;;;;20.00;16.33;;;;;12.39;100.00;100082.22;5057340;28;45457;-84
2023/12/12 02:52:35;;;;;;;;;6.33;6.33;;;;;12.40;100.00;100074.13;5059210;28;45576;-83
2023/12/12 02:55:00;;;;;;;;;14.33;14.33;;;;;12.40;100.00;100060.78;5077570;28;45445;-84
2023/12/12 02:57:25;;;;;;;;;17.33;13.33;;;;;12.34;100.00;100053.19;5071530;27;59235;-84
2023/12/12 02:59:51;;;;;;;;;15.33;13.33;;;;;12.37;100.00;100057.50;5057142;28;45364;-84
2023/12/12 03:02:16;;;;;;;;;13.67;13.33;;;;;12.38;100.00;100052.03;5056411;28;45422;-83
2023/12/12 03:04:45;;;;;;;;;13.33;13.00;;;;;12.36;100.00;100048.59;5057140;28;45573;-83
2023/12/12 03:07:11;;;;;;;;;13.00;13.00;;;;;12.23;100.00;100017.59;5056735;28;46203;-84
2023/12/12 03:09:36;;;;;;;;;17.00;14.67;;;;;12.18;100.00;100022.44;5057414;28;45296;-84
2023/12/12 03:12:02;;;;;;;;;15.33;14.00;;;;;12.14;100.00;100029.81;5056468;28;45502;-84
2023/12/12 03:14:29;;;;;;;;;20.67;14.67;;;;;12.08;100.00;100035.56;5056446;27;45481;-83
2023/12/12 03:16:54;;;;;;;;;13.67;12.33;;;;;12.05;100.00;100041.97;5056721;28;46165;-85
2023/12/12 03:19:20;;;;;;;;;12.67;11.67;;;;;12.04;100.00;100031.41;5056401;28;45308;-84
2023/12/12 03:21:45;;;;;;;;;13.00;13.00;;;;;11.98;100.00;100023.84;5056537;28;45435;-83
2023/12/12 03:24:10;;;;;;;;;15.33;15.33;;;;;12.03;100.00;100024.38;5056874;28;45664;-84
2023/12/12 03:26:36;;;;;;;;;13.00;11.33;;;;;12.01;100.00;100015.66;5055647;27;46570;-83
2023/12/12 03:29:01;;;;;;;;;18.00;12.33;;;;;12.02;100.00;100014.69;5056325;28;45528;-85
2023/12/12 03:31:27;;;;;;;;;15.33;13.00;;;;;11.97;100.00;99998.16;5056855;28;45248;-84
2023/12/12 03:33:52;;;;;;;;;11.67;11.67;;;;;11.92;100.00;99982.50;5057305;28;45625;-85
2023/12/12 03:36:17;;;;;;;;;11.67;11.67;;;;;11.98;100.00;99989.19;5056671;28;46069;-84
2023/12/12 03:38:43;;;;;;;;;14.33;12.00;;;;;12.01;100.00;99995.19;5055853;28;60533;-83
2023/12/12 03:41:08;;;;;;;;;11.00;7.67;;;;;11.96;100.00;99989.31;5055943;28;55128;-84
2023/12/12 03:43:33;;;;;;;;;11.33;10.67;;;;;11.96;100.00;99978.66;5056213;27;45348;-84
2023/12/12 03:46:00;;;;;;;;;13.00;10.00;;;;;11.94;100.00;99980.56;5057026;28;45194;-83
2023/12/12 03:48:25;;;;;;;;;11.67;10.33;;;;;11.97;100.00;99975.00;5068388;27;45267;-82
2023/12/12 03:50:50;;;;;;;;;9.00;9.00;;;;;11.97;100.00;99960.84;5056680;28;57800;-84
2023/12/12 03:53:16;;;;;;;;;15.33;12.00;;;;;12.05;100.00;99966.47;5056775;27;45340;-85
2023/12/12 03:55:41;;;;;;;;;11.67;11.33;;;;;12.08;100.00;99955.59;5055985;28;46963;-85
2023/12/12 03:58:06;;;;;;;;;9.00;9.00;;;;;12.13;100.00;99957.94;5057690;27;60931;-85
2023/12/12 04:00:32;;;;;;;;;10.33;10.00;;;;;12.16;100.00;99950.56;5076667;28;45271;-83
2023/12/12 04:02:57;;;;;;;;;12.33;11.67;;;;;12.11;100.00;99934.06;5057762;27;45216;-86
2023/12/12 04:05:22;;;;;;;;;10.67;9.00;;;;;12.06;100.00;99930.88;5056210;28;45968;-85
2023/12/12 04:07:48;;;;;;;;;13.67;9.33;;;;;12.14;100.00;99943.66;5055992;28;45336;-84
2023/12/12 04:10:13;;;;;;;;;7.67;7.67;;;;;12.14;100.00;99939.16;5056057;28;45560;-84
2023/12/12 04:12:39;;;;;;;;;13.00;11.67;;;;;12.07;100.00;99937.91;5056312;28;45515;-84
2023/12/12 04:15:05;;;;;;;;;10.00;8.67;;;;;12.13;100.00;99947.28;5055262;28;45521;-85
2023/12/12 04:17:30;;;;;;;;;10.67;10.67;;;;;12.10;100.00;99943.84;5070802;27;45791;-84
2023/12/12 04:19:56;;;;;;;;;6.00;6.00;;;;;12.09;100.00;99936.81;5076666;28;45351;-85
2023/12/12 04:22:21;;;;;;;;;6.33;6.33;;;;;12.05;100.00;99942.50;5075218;28;45555;-83
2023/12/12 04:24:47;;;;;;;;;8.33;8.33;;;;;12.04;100.00;99938.97;5075713;28;55386;-84
2023/12/12 04:27:12;;;;;;;;;9.00;9.00;;;;;11.99;100.00;99935.81;5067324;27;48767;-84
2023/12/12 04:29:37;;;;;;;;;8.33;7.33;;;;;11.97;100.00;99928.88;5055924;28;45433;-85
2023/12/12 04:32:03;;;;;;;;;14.67;10.00;;;;;12.12;100.00;99949.09;5056383;28;45418;-87
2023/12/12 04:34:32;;;;;;;;;8.33;8.33;;;;;12.11;100.00;99936.75;5076366;27;46780;-86
2023/12/12 04:36:58;;;;;;;;;8.67;8.67;;;;;12.27;100.00;99947.13;5076277;28;45227;-85
2023/12/12 04:39:24;;;;;;;;;12.67;12.33;;;;;12.34;100.00;99946.53;5055525;28;45538;-85
2023/12/12 04:41:50;;;;;;;;;10.33;9.33;;;;;12.39;100.00;99933.75;5059418;28;45583;-84
2023/12/12 04:44:15;;;;;;;;;6.67;6.67;;;;;12.52;100.00;99941.69;5056964;28;46850;-84
2023/12/12 04:46:41;;;;;;;;;10.00;10.00;;;;;12.53;100.00;99930.06;5060493;27;45387;-85
2023/12/12 04:49:06;;;;;;;;;12.00;12.00;;;;;12.64;100.00;99922.09;5059317;28;45556;-85
2023/12/12 04:51:31;;;;;;;;;14.33;10.67;;;;;12.66;100.00;99919.31;5059144;28;49332;-85
2023/12/12 04:53:57;;;;;;;;;11.00;9.67;;;;;12.66;100.00;99913.97;5058386;28;45316;-84
2023/12/12 04:56:22;;;;;;;;;10.67;9.67;;;;;12.67;100.00;99913.00;5078255;28;46137;-86
2023/12/12 04:58:47;;;;;;;;;5.00;5.00;;;;;12.62;100.00;99901.81;5078566;27;63548;-85
2023/12/12 05:01:16;;;;;;;;;12.33;9.00;;;;;12.69;100.00;99908.41;5078586;27;45410;-85
2023/12/12 05:03:41;;;;;;;;;7.33;6.67;;;;;12.66;100.00;99903.31;5068466;28;46043;-85
2023/12/12 05:06:11;;;;;;;;;7.00;7.00;;;;;12.63;100.00;99898.19;5073079;27;45520;-85
2023/12/12 05:08:36;;;;;;;;;9.67;7.00;;;;;12.58;100.00;99897.69;5076884;27;45270;-84
2023/12/12 05:11:01;;;;;;;;;12.33;10.33;;;;;12.55;100.00;99888.09;5059097;28;45415;-85
2023/12/12 05:13:27;;;;;;;;;13.67;9.33;;;;;12.59;100.00;99888.72;5058635;28;46494;-84
2023/12/12 05:15:52;;;;;;;;;13.67;9.67;;;;;12.40;100.00;99866.13;5057953;28;68440;-85
2023/12/12 05:18:18;;;;;;;;;10.00;9.00;;;;;12.51;100.00;99894.66;5058264;27;45537;-87
2023/12/12 05:20:43;;;;;;;;;12.00;10.00;;;;;12.51;100.00;99896.47;5058888;28;45619;-86
2023/12/12 05:23:09;;;;;;;;;7.00;7.00;;;;;12.42;100.00;99886.47;5058402;28;46655;-87
2023/12/12 05:25:35;;;;;;;;;9.67;8.33;;;;;12.50;100.00;99900.06;5058816;28;45288;-86
2023/12/12 05:28:01;;;;;;;;;9.00;9.00;;;;;12.50;100.00;99892.94;5064321;27;45387;-86
2023/12/12 05:30:26;;;;;;;;;9.00;9.00;;;;;12.45;100.00;99872.91;5079027;28;45251;-85
2023/12/12 05:32:51;;;;;;;;;15.00;12.33;;;;;12.38;100.00;99862.72;5075310;27;45319;-84
2023/12/12 05:35:16;;;;;;;;;18.00;11.00;;;;;12.38;100.00;99853.88;5073264;28;62322;-86
2023/12/12 05:37:42;;;;;;;;;15.67;15.00;;;;;12.54;100.00;99872.22;5058088;27;45312;-84
2023/12/12 05:40:07;;;;;;;;;16.33;15.33;;;;;12.55;100.00;99876.59;5059468;28;45418;-86
2023/12/12 05:42:33;;;;;;;;;19.33;14.33;;;;;12.54;100.00;99872.22;5061332;28;45343;-87
2023/12/12 05:44:58;;;;;;;;;17.67;13.33;;;;;12.57;100.00;99879.97;5060111;28;45257;-86
2023/12/12 05:47:24;;;;;;;;;17.33;15.67;;;;;12.56;100.00;99876.47;5061340;27;45509;-87
2023/12/12 05:49:50;;;;;;;;;16.33;12.00;;;;;12.53;100.00;99865.19;5061965;28;45294;-87
2023/12/12 05:52:15;;;;;;;;;21.00;15.00;;;;;12.47;100.00;99858.47;5059566;28;45453;-87
2023/12/12 05:54:41;;;;;;;;;14.67;13.00;;;;;12.48;100.00;99862.00;5058751;28;45538;-87
2023/12/12 05:57:06;;;;;;;;;15.33;12.00;;;;;12.38;100.00;99856.53;5058745;28;45371;-87
2023/12/12 05:59:32;;;;;;;;;9.67;9.67;;;;;12.36;100.00;99858.44;5058544;28;45264;-87
2023/12/12 06:01:57;;;;;;;;;17.00;12.00;;;;;12.35;100.00;99856.75;5056731;27;54687;-86
2023/12/12 06:04:22;;;;;;;;;13.00;13.00;;;;;12.36;100.00;99856.63;5075715;27;51895;-84
2023/12/12 06:06:48;;;;;;;;;13.00;13.00;;;;;12.37;100.00;99861.00;5064721;27;45653;-83
2023/12/12 06:09:14;;;;;;;;;15.67;13.33;;;;;12.38;100.00;99860.03;5069841;27;45572;-84
2023/12/12 06:11:40;;;;;;;;;24.00;15.33;;;;;12.37;100.00;99869.00;5084124;27;46126;-85
2023/12/12 06:14:05;;;;;;;;;8.33;8.33;;;;;12.35;100.00;99856.75;5094425;27;45388;-83
2023/12/12 06:16:31;;;;;;;;;7.33;7.33;;;;;12.43;100.00;99861.50;5076340;27;45406;-84
2023/12/12 06:18:57;;;;;;;;;10.00;10.00;;;;;12.48;100.00;99859.34;5079855;27;45302;-84
2023/12/12 06:21:22;;;;;;;;;11.00;11.00;;;;;12.52;100.00;99840.34;5082435;27;45945;-85
2023/12/12 06:23:48;;;;;;;;;10.67;10.67;;;;;12.45;100.00;99827.56;5078458;27;53282;-83
2023/12/12 06:26:14;;;;;;;;;11.67;10.00;;;;;12.52;100.00;99836.81;5063279;27;45362;-84
2023/12/12 06:28:40;;;;;;;;;11.67;10.67;;;;;12.53;100.00;99828.69;5074350;27;45284;-84
2023/12/12 06:31:07;;;;;;;;;13.00;9.00;;;;;12.61;100.00;99830.75;5075191;27;46188;-83
2023/12/12 06:33:33;;;;;;;;;10.00;10.00;;;;;12.61;100.00;99825.44;5085353;27;45407;-84
2023/12/12 06:35:58;;;;;;;;;7.33;7.00;;;;;12.63;100.00;99824.38;5087425;27;45363;-83
2023/12/12 06:38:24;;;;;;;;;7.33;7.33;;;;;12.68;100.00;99827.50;5076821;27;45737;-84
2023/12/12 06:40:49;;;;;;;;;7.00;6.00;;;;;12.61;100.00;99825.44;5074875;27;45511;-84
2023/12/12 06:43:16;;;;;;;;;5.00;5.00;;;;;12.53;100.00;99811.84;5086851;27;45254;-81
2023/12/12 06:45:41;;;;;;;;;5.00;5.00;;;;;12.52;100.00;99811.00;5074449;27;45516;-83
2023/12/12 06:48:06;;;;;;;;;10.00;7.00;;;;;12.64;100.00;99839.41;5092547;27;45376;-84
2023/12/12 06:50:31;;;;;;;;;7.00;5.67;;;;;12.60;100.00;99829.91;5092015;27;45517;-85
2023/12/12 06:52:57;;;;;;;;;8.33;8.33;;;;;12.66;100.00;99839.28;5073243;27;45395;-86
2023/12/12 06:55:22;;;;;;;;;4.33;4.33;;;;;12.59;100.00;99819.38;5083281;27;45173;-84
2023/12/12 06:57:48;;;;;;;;;8.33;6.00;;;;;12.62;100.00;99824.47;5091781;27;45444;-83
2023/12/12 07:00:14;;;;;;;;;6.33;5.33;;;;;12.72;100.00;99836.13;5069251;27;49479;-84
2023/12/12 07:02:39;;;;;;;;;13.00;8.33;;;;;12.56;100.00;99819.59;5074964;27;45919;-82
2023/12/12 07:05:05;;;;;;;;;9.00;6.00;;;;;12.62;100.00;99837.78;5071724;27;45484;-83
2023/12/12 07:07:30;;;;;;;;;10.00;7.67;;;;;12.62;100.00;99840.47;5089610;27;45324;-85
2023/12/12 07:09:55;;;;;;;;;6.33;6.33;;;;;12.63;100.00;99848.38;5080293;27;61965;-82
2023/12/12 07:12:21;;;;;;;;;9.33;6.33;;;;;12.63;100.00;99852.81;5091346;27;45393;-82
2023/12/12 07:14:46;;;;;;;;;11.00;7.67;;;;;12.66;100.00;99855.28;5063117;27;45485;-84
2023/12/12 07:17:12;;;;;;;;;11.00;7.00;;;;;12.69;100.00;99857.72;5084813;27;45549;-84
2023/12/12 07:19:37;;;;;;;;;13.33;10.33;;;;;12.68;100.00;99862.19;5077179;27;46075;-82
2023/12/12 07:22:02;;;;;;;;;12.33;11.33;;;;;12.65;100.00;99845.59;5089638;27;45405;-82
2023/12/12 07:24:28;;;;;;;;;13.00;10.67;;;;;12.75;100.00;99862.56;5080155;27;45489;-84
2023/12/12 07:26:54;;;;;;;;;10.00;8.33;;;;;12.82;100.00;99865.63;5089729;27;45646;-83
2023/12/12 07:29:19;;;;;;;;;12.33;12.33;;;;;12.83;100.00;99856.66;5086859;27;45388;-83
2023/12/12 07:31:45;;;;;;;;;10.00;10.00;;;;;12.86;100.00;99856.41;5082293;27;45526;-84
2023/12/12 07:34:11;;;;;;;;;6.67;6.67;;;;;12.87;100.00;99864.28;5093466;27;45277;-82
2023/12/12 07:36:37;;;;;;;;;8.00;8.00;;;;;12.77;100.00;99836.66;5081575;27;45339;-84
2023/12/12 07:39:05;;;;;;;;;4.33;3.00;;;;;12.84;100.00;99850.34;5087681;27;46193;-82
2023/12/12 07:41:34;;;;;;;;;10.00;10.00;;;;;12.93;100.00;99863.84;5086790;27;45413;-82
2023/12/12 07:43:59;;;;;;;;;6.33;6.00;;;;;12.97;100.00;99859.94;5079885;27;45425;-83
2023/12/12 07:46:25;;;;;;;;;8.67;7.00;;;;;13.01;100.00;99855.22;5093097;27;45685;-83
2023/12/12 07:48:50;;;;;;;;;5.67;5.67;;;;;13.03;100.00;99855.13;5064768;27;47917;-83
2023/12/12 07:51:16;;;;;;;;;10.33;7.00;;;;;13.06;99.63;99853.06;5087822;27;45239;-84
2023/12/12 07:53:41;;;;;;;;;4.67;4.67;;;;;13.09;99.56;99851.97;5092645;27;45410;-83
2023/12/12 07:56:07;;;;;;;;;5.67;5.67;;;;;13.16;99.10;99858.53;5081191;27;45401;-84
2023/12/12 07:58:33;;;;;;;;;6.00;4.00;;;;;13.19;98.95;99861.00;5092108;27;46135;-84
2023/12/12 08:00:58;;;;;;;;;6.00;6.00;;;;;13.21;98.78;99856.38;5083695;27;47962;-83
2023/12/12 08:03:23;;;;;;;;;3.67;3.67;;;;;13.23;98.46;99847.28;5090637;27;63596;-84
2023/12/12 08:05:49;;;;;;;;;4.67;4.33;;;;;13.16;97.47;99830.00;5091092;27;45207;-85
2023/12/12 08:08:14;;;;;;;;;6.33;5.00;;;;;13.32;97.47;99859.06;5078542;27;66364;-85
2023/12/12 08:10:40;;;;;;;;;4.00;4.00;;;;;13.32;97.33;99850.19;5090847;27;45335;-82
2023/12/12 08:13:05;;;;;;;;;5.00;5.00;;;;;13.31;97.02;99841.34;5085371;27;45575;-84
2023/12/12 08:15:31;;;;;;;;;3.33;3.33;;;;;13.41;97.12;99846.78;5088107;27;45538;-85
2023/12/12 08:17:56;;;;;;;;;4.00;3.00;;;;;13.45;96.88;99843.75;5078297;27;47927;-84
2023/12/12 08:20:21;;;;;;;;;6.33;5.00;;;;;13.45;95.84;99832.22;5082700;27;45331;-85
2023/12/12 08:22:47;;;;;;;;;5.00;5.00;;;;;13.48;96.12;99838.16;5074543;28;50058;-84
2023/12/12 08:25:12;;;;;;;;;5.00;5.00;;;;;13.55;95.71;99839.38;5089406;27;45568;-83
2023/12/12 08:27:37;;;;;;;;;5.00;5.00;;;;;13.57;95.13;99824.06;5086028;27;56039;-84
2023/12/12 08:30:07;;;;;;;;;8.00;5.33;;;;;13.48;95.07;99822.13;5095641;27;58527;-83
2023/12/12 08:32:33;;;;;;;;;4.00;4.00;;;;;13.57;94.78;99833.91;5083439;27;45426;-84
2023/12/12 08:34:58;;;;;;;;;2.00;2.00;;;;;13.54;95.02;99827.00;5091934;27;45580;-84
2023/12/12 08:37:24;;;;;;;;;3.00;3.00;;;;;13.51;94.50;99829.88;5089852;27;60455;-83
2023/12/12 08:39:49;;;;;;;;;5.00;3.00;;;;;13.51;94.18;99831.72;5084222;27;45466;-84
2023/12/12 08:42:14;;;;;;;;;2.00;2.00;;;;;13.52;94.46;99831.59;5077440;27;45726;-84
2023/12/12 08:44:41;;;;;;;;;4.33;3.33;;;;;13.41;94.76;99828.97;5084580;27;45493;-81
2023/12/12 08:47:10;;;;;;;;;4.00;4.00;;;;;13.47;94.44;99831.13;5090275;27;46962;-83
2023/12/12 08:49:37;;;;;;;;;3.00;3.00;;;;;13.54;94.16;99837.69;5092600;27;45460;-83
2023/12/12 08:52:07;;;;;;;;;7.00;7.00;;;;;13.62;93.83;99830.84;5084871;27;45273;-83
2023/12/12 08:54:33;;;;;;;;;4.00;2.33;;;;;13.72;93.34;99829.16;5096504;27;45463;-84
2023/12/12 08:56:58;;;;;;;;;3.00;3.00;;;;;13.83;92.78;99842.50;5069966;27;45423;-82
2023/12/12 08:59:24;;;;;;;;;3.00;3.00;;;;;13.83;92.69;99842.50;5098966;27;45406;-83
2023/12/12 09:01:52;;;;;;;;;2.67;2.67;;;;;13.83;91.78;99838.00;5094044;27;61679;-82
2023/12/12 09:04:17;;;;;;;;;5.00;2.00;;;;;13.84;91.99;99828.16;5082631;27;45338;-83
2023/12/12 09:06:46;;;;;;;;;1.67;1.67;;;;;13.78;91.63;99823.28;5092929;27;51759;-82
2023/12/12 09:09:12;;;;;;;;;4.00;2.00;;;;;13.81;91.52;99836.44;5070005;27;46089;-84
2023/12/12 09:11:39;;;;;;;;;1.00;1.00;;;;;13.77;91.83;99837.63;5086406;27;45479;-83
2023/12/12 09:14:05;;;;;;;;;2.00;2.00;;;;;13.75;90.98;99834.25;5095420;27;45450;-83
2023/12/12 09:16:31;;;;;;;;;1.00;1.00;;;;;13.75;91.16;99839.56;5063483;27;46649;-83
2023/12/12 09:18:56;;;;;;;;;1.00;1.00;;;;;13.77;91.34;99824.25;5090890;27;45276;-83
2023/12/12 09:21:21;;;;;;;;;2.00;2.00;;;;;13.69;90.45;99808.88;5089425;27;45451;-82
2023/12/12 09:23:47;;;;;;;;;2.00;2.00;;;;;13.81;90.55;99839.09;5084004;27;45211;-83
2023/12/12 09:26:14;;;;;;;;;1.67;1.33;;;;;13.83;89.84;99837.16;5094521;27;45494;-82
2023/12/12 09:28:42;;;;;;;;;2.00;2.00;;;;;13.87;90.17;99833.25;5083689;27;45502;-82
2023/12/12 09:31:11;;;;;;;;;1.00;1.00;;;;;13.92;89.54;99831.03;5088145;27;45485;-82
2023/12/12 09:33:37;;;;;;;;;2.00;2.00;;;;;13.94;89.02;99833.59;5091941;27;45396;-83
2023/12/12 09:36:04;;;;;;;;;1.67;1.67;;;;;13.95;89.39;99828.13;5081318;27;45335;-83
2023/12/12 09:38:29;;;;;;;;;2.67;2.00;;;;;13.85;88.63;99803.13;5094278;27;45377;-83
2023/12/12 09:40:56;;;;;;;;;1.00;1.00;;;;;13.97;88.30;99836.00;5067571;27;45549;-83
2023/12/12 09:43:26;;;;;;;;;3.33;2.00;;;;;13.86;88.88;99829.72;5087347;27;45397;-82
2023/12/12 09:45:55;;;;;;;;;3.33;2.00;;;;;13.92;88.27;99835.53;5093137;27;46087;-82
2023/12/12 09:48:21;;;;;;;;;2.33;2.33;;;;;13.94;88.79;99838.94;5081252;27;45344;-82
2023/12/12 09:50:47;;;;;;;;;1.00;1.00;;;;;13.92;88.21;99822.16;5092567;27;45558;-83
2023/12/12 09:53:13;;;;;;;;;0.33;0.33;;;;;13.87;88.36;99820.72;5089541;27;45393;-83
2023/12/12 09:55:39;;;;;;;;;1.00;1.00;;;;;13.95;88.50;99820.09;5085963;27;46081;-82
2023/12/12 09:58:05;;;;;;;;;1.00;1.00;;;;;13.93;88.50;99811.34;5076601;27;45448;-83
2023/12/12 10:00:30;;;;;;;;;1.00;1.00;;;;;13.86;88.66;99799.47;5081947;27;45330;-81
2023/12/12 10:02:58;;;;;;;;;1.00;1.00;;;;;13.92;88.55;99824.84;5090769;27;45674;-83
2023/12/12 10:05:26;;;;;;;;;0.33;0.33;;;;;13.86;88.92;99816.34;5088993;27;45295;-83
2023/12/12 10:07:53;;;;;;;;;0.33;0.33;;;;;13.81;90.09;99807.03;5082471;27;45510;-83
2023/12/12 10:10:19;;;;;;;;;0.67;0.67;;;;;13.75;90.55;99786.97;5094095;27;45468;-82
2023/12/12 10:12:47;;;;;;;;;0.00;0.00;;;;;13.85;90.80;99797.78;5083368;27;45411;-83
2023/12/12 10:15:27;;;;;;;;;1.00;1.00;;;;;14.00;90.55;99809.03;5069437;28;47533;-84
2023/12/12 10:17:59;;;;;;;;;1.00;1.00;;;;;14.04;89.64;99811.31;5092871;27;45452;-84
2023/12/12 10:20:30;;;;;;;;;1.33;1.33;;;;;13.92;89.59;99790.94;5081132;27;45579;-84
2023/12/12 10:23:00;;;;;;;;;1.00;1.00;;;;;14.12;88.69;99813.34;5090979;27;45676;-84
2023/12/12 10:25:30;;;;;;;;;3.00;1.00;;;;;14.16;88.58;99801.41;5087817;27;47336;-84
2023/12/12 10:27:57;;;;;;;;;3.00;1.33;;;;;14.28;88.02;99804.91;5081496;27;45242;-84
2023/12/12 10:30:22;;;;;;;;;3.00;2.00;;;;;14.34;87.08;99809.75;5094171;27;45255;-85
2023/12/12 10:32:52;;;;;;;;;2.00;2.00;;;;;14.43;87.00;99811.63;5083919;27;45401;-84
2023/12/12 10:35:22;;;;;;;;;3.00;1.00;;;;;14.43;85.21;99790.22;5086618;27;45540;-83
2023/12/12 10:37:48;;;;;;;;;2.00;1.00;;;;;14.51;85.03;99787.78;5090834;27;45195;-84
2023/12/12 10:40:21;;;;;;;;;2.00;2.00;;;;;14.52;84.27;99780.59;5080418;27;45197;-84
2023/12/12 10:42:47;;;;;;;;;1.00;1.00;;;;;14.56;82.75;99788.22;5091375;27;45452;-83
2023/12/12 10:45:14;;;;;;;;;0.33;0.33;;;;;14.53;82.75;99785.81;5087133;27;45556;-84
2023/12/12 10:47:44;;;;;;;;;0.00;0.00;;;;;14.58;82.30;99785.44;5083807;27;45753;-84
2023/12/12 10:50:14;;;;;;;;;0.33;0.00;;;;;14.60;81.64;99784.34;5093995;27;45457;-81
2023/12/12 10:52:41;;;;;;;;;3.00;1.00;;;;;14.60;81.74;99781.66;5083092;27;45182;-82
2023/12/12 10:55:09;;;;;;;;;1.33;0.33;;;;;14.58;82.29;99783.59;5088921;27;45367;-82
2023/12/12 10:57:37;;;;;;;;;1.00;1.00;;;;;14.57;81.68;99789.94;5090179;27;45381;-83
2023/12/12 11:00:11;;;;;;;;;3.00;2.00;;;;;14.53;81.72;99777.81;5080122;27;45415;-82
2023/12/12 11:02:40;;;;;;;;;3.67;3.33;;;;;14.45;81.40;99774.91;5092654;27;45333;-82
2023/12/12 11:05:08;;;;;;;;;2.00;2.00;;;;;14.47;81.28;99775.66;5085670;27;45513;-84
2023/12/12 11:07:34;;;;;;;;;1.33;1.33;;;;;14.35;81.96;99763.28;5084123;27;45451;-80
2023/12/12 11:09:59;;;;;;;;;3.67;2.00;;;;;14.39;82.07;99775.41;5093213;27;45488;-83